French Settlement, Louisiana
Current Conditions -  °F | °C
As of 8:35 PM on Friday 28 Nov 2014 (Local Time) from KL38 Reporting Station
Clear Clear  
Wind Chill: 46°   Ceiling: Unl
Heat Index: 46°   Visibility: 10mi
Dew Point: 45°   Wind: 0mph
Humidity: 97%   Direction: NA
Pressure: 30.27"   Gusts: NA
Location:  30.3°N, 90.8°W
Report Text: KL38 290235Z AUTO 00000KT 10SM CLR 08/07 A3027 RMK AO2 T00780074
Loading
Personal Weather Stations






























Interactive Weather Map New forecast layout! Learn more

10-Day Weather Forecast

Advertisements
Track Severe Weather on mobile